Time;durP1;ratioP1;P1;durP2;ratioP2;P2;SDS_P1;SDS_P2;PMS_P1;PMS_P2;Temp;Humidity;BMP_temperature;BMP_pressure;BME280_temperature;BME280_humidity;BME280_pressure;Samples;Min_cycle;Max_cycle;Signal;HPM_P1;HPM_P2
2022/08/14 00:00:02;;;;;;;0.50;0.33;;;;;;;19.71;100.00;94799.03;5033163;28;20920;-58
2022/08/14 00:02:31;;;;;;;0.40;0.30;;;;;;;19.82;100.00;94816.28;5033036;28;20943;-58
2022/08/14 00:04:59;;;;;;;0.47;0.37;;;;;;;19.74;100.00;94816.41;5033247;28;20422;-58
2022/08/14 00:07:29;;;;;;;0.50;0.40;;;;;;;19.71;100.00;94807.09;5033007;28;20510;-58
2022/08/14 00:09:58;;;;;;;1.03;0.30;;;;;;;19.67;100.00;94805.44;5033065;28;20510;-58
2022/08/14 00:12:49;;;;;;;0.60;0.30;;;;;;;19.75;100.00;94802.63;5032901;28;20844;-58
2022/08/14 00:15:27;;;;;;;1.33;0.90;;;;;;;19.81;100.00;94793.19;5033205;28;20501;-58
2022/08/14 00:18:15;;;;;;;0.60;0.50;;;;;;;19.72;100.00;94784.47;5047590;28;20833;-58
2022/08/14 00:21:03;;;;;;;0.87;0.87;;;;;;;19.14;100.00;94791.09;5072566;28;20444;-58
2022/08/14 00:23:40;;;;;;;0.60;0.30;;;;;;;19.31;100.00;94787.41;5072695;28;20455;-58
2022/08/14 00:26:08;;;;;;;0.43;0.27;;;;;;;19.46;100.00;94784.06;5072868;28;20449;-58
2022/08/14 00:28:50;;;;;;;0.50;0.40;;;;;;;19.59;100.00;94793.69;5072484;28;20853;-58
2022/08/14 00:31:20;;;;;;;0.40;0.27;;;;;;;19.57;100.00;94793.25;5072605;28;20503;-58
2022/08/14 00:34:09;;;;;;;0.50;0.33;;;;;;;19.55;100.00;94790.91;5072629;28;20430;-58
2022/08/14 00:36:57;;;;;;;0.50;0.37;;;;;;;19.57;100.00;94787.88;5071802;28;20532;-58
2022/08/14 00:39:27;;;;;;;0.40;0.30;;;;;;;19.54;100.00;94785.84;5072514;28;20790;-57
2022/08/14 00:41:57;;;;;;;0.90;0.90;;;;;;;19.25;100.00;94797.59;5072375;28;20414;-57
2022/08/14 00:44:25;;;;;;;0.50;0.40;;;;;;;19.44;100.00;94799.75;5072530;28;20488;-57
2022/08/14 00:47:02;;;;;;;0.40;0.20;;;;;;;19.51;100.00;94794.59;5071988;28;20417;-58
2022/08/14 00:49:31;;;;;;;0.50;0.30;;;;;;;19.47;100.00;94796.41;5072195;28;20421;-58
2022/08/14 00:52:11;;;;;;;0.47;0.37;;;;;;;19.70;100.00;94800.19;5072296;28;20818;-57
2022/08/14 00:54:51;;;;;;;0.50;0.40;;;;;;;19.46;100.00;94771.41;5072055;28;20425;-57
2022/08/14 00:57:27;;;;;;;0.57;0.57;;;;;;;19.49;100.00;94789.56;5072472;28;20568;-57
2022/08/14 00:59:56;;;;;;;0.50;0.50;;;;;;;19.54;100.00;94769.72;5071901;28;20425;-57
2022/08/14 01:02:25;;;;;;;0.40;0.30;;;;;;;19.60;100.00;94798.75;5071974;28;20516;-58
2022/08/14 01:05:01;;;;;;;0.73;0.73;;;;;;;19.17;100.00;94795.81;5071984;28;20420;-57
2022/08/14 01:07:30;;;;;;;0.40;0.30;;;;;;;19.16;100.00;94793.44;5072281;28;20984;-57
2022/08/14 01:10:08;;;;;;;0.40;0.23;;;;;;;19.21;100.00;94791.31;5071904;28;20439;-57
2022/08/14 01:12:40;;;;;;;0.40;0.30;;;;;;;19.34;100.00;94794.78;5071869;28;20460;-58
2022/08/14 01:15:10;;;;;;;0.50;0.37;;;;;;;19.27;100.00;94797.25;5072543;28;20418;-57
2022/08/14 01:23:15;;;;;;;0.50;0.30;;;;;;;19.58;100.00;94779.47;5064138;28;20832;-57
2022/08/14 01:25:48;;;;;;;0.40;0.30;;;;;;;19.58;100.00;94776.00;5072123;28;20429;-57
2022/08/14 01:28:20;;;;;;;0.70;0.50;;;;;;;19.10;100.00;94698.09;5071752;28;20420;-57
2022/08/14 01:31:11;;;;;;;0.40;0.30;;;;;;;19.60;100.00;94771.84;5071653;28;20489;-57
2022/08/14 01:33:46;;;;;;;0.50;0.47;;;;;;;19.64;100.00;94772.72;5071996;28;20428;-57
2022/08/14 01:36:37;;;;;;;0.50;0.30;;;;;;;19.54;100.00;94772.41;5071632;28;20437;-57
2022/08/14 01:39:10;;;;;;;0.50;0.40;;;;;;;19.28;100.00;94712.84;5071585;28;20524;-57
2022/08/14 01:41:42;;;;;;;0.40;0.30;;;;;;;19.57;100.00;94755.63;5071463;28;20425;-57
2022/08/14 01:44:14;;;;;;;0.57;0.40;;;;;;;19.68;100.00;94756.72;5071595;28;20423;-57
2022/08/14 01:47:12;;;;;;;0.40;0.30;;;;;;;19.74;100.00;94754.56;5071520;28;20426;-58
2022/08/14 01:49:50;;;;;;;1.17;1.07;;;;;;;19.56;100.00;94748.66;5075379;28;20417;-57
2022/08/14 01:52:32;;;;;;;0.40;0.20;;;;;;;19.62;100.00;94748.09;5075690;28;20467;-57
2022/08/14 01:55:29;;;;;;;0.90;0.90;;;;;;;19.66;100.00;94748.19;5075212;28;20444;-57
2022/08/14 01:57:58;;;;;;;0.97;0.87;;;;;;;19.72;100.00;94752.22;5075603;28;20421;-57
2022/08/14 02:00:46;;;;;;;0.60;0.30;;;;;;;19.64;100.00;94758.50;5075811;28;20436;-57
2022/08/14 02:03:16;;;;;;;0.40;0.30;;;;;;;19.33;100.00;94755.59;5075824;28;20459;-57
2022/08/14 02:05:44;;;;;;;0.97;0.80;;;;;;;18.94;100.00;94749.03;5075579;28;20805;-57
2022/08/14 02:08:13;;;;;;;0.50;0.50;;;;;;;18.77;100.00;94749.25;5075038;28;20910;-57
2022/08/14 02:11:15;;;;;;;0.60;0.53;;;;;;;18.99;100.00;94751.47;5075127;28;20425;-57
2022/08/14 02:13:47;;;;;;;0.50;0.40;;;;;;;19.40;100.00;94740.53;5074777;28;20974;-57
2022/08/14 02:16:24;;;;;;;0.40;0.30;;;;;;;19.50;100.00;94742.75;5075289;28;20893;-57
2022/08/14 02:18:56;;;;;;;0.63;0.60;;;;;;;19.21;100.00;94736.81;5074927;28;20463;-57
2022/08/14 02:21:27;;;;;;;0.60;0.40;;;;;;;19.32;100.00;94737.94;5075268;28;20500;-57
2022/08/14 02:24:08;;;;;;;0.40;0.30;;;;;;;19.35;100.00;94732.66;5074797;28;21021;-57
2022/08/14 02:26:59;;;;;;;0.80;0.40;;;;;;;19.56;100.00;94727.94;5075083;28;20812;-57
2022/08/14 02:29:48;;;;;;;0.50;0.30;;;;;;;19.59;100.00;94721.09;5074778;28;20439;-57
2022/08/14 02:32:29;;;;;;;0.40;0.30;;;;;;;19.40;100.00;94720.94;5074644;28;20995;-57
2022/08/14 02:35:17;;;;;;;0.40;0.30;;;;;;;19.29;100.00;94727.84;5074665;28;20425;-57
2022/08/14 02:37:46;;;;;;;0.50;0.30;;;;;;;19.41;100.00;94725.16;5073887;28;20424;-56
2022/08/14 02:40:17;;;;;;;0.67;0.67;;;;;;;19.48;100.00;94730.78;5074917;28;20448;-57
2022/08/14 02:42:49;;;;;;;0.40;0.30;;;;;;;19.46;100.00;94723.03;5074833;28;20429;-57
2022/08/14 02:45:25;;;;;;;0.40;0.30;;;;;;;19.50;100.00;94728.53;5074733;28;20417;-57
2022/08/14 02:48:06;;;;;;;17.30;2.93;;;;;;;19.26;100.00;94680.16;5074358;28;20421;-57
2022/08/14 02:50:54;;;;;;;0.60;0.40;;;;;;;19.09;100.00;94654.34;5074097;28;20440;-57
2022/08/14 02:53:23;;;;;;;0.40;0.20;;;;;;;19.45;100.00;94709.94;5074134;28;21032;-57
2022/08/14 02:55:53;;;;;;;0.53;0.40;;;;;;;19.44;100.00;94708.38;5074453;28;20426;-57
2022/08/14 02:58:23;;;;;;;2.60;1.53;;;;;;;19.48;100.00;94709.28;5074093;28;20422;-57
2022/08/14 03:00:58;;;;;;;0.40;0.20;;;;;;;19.40;100.00;94702.91;5073654;28;20440;-57
2022/08/14 03:03:29;;;;;;;0.57;0.57;;;;;;;19.28;100.00;94704.78;5074193;28;20431;-57
2022/08/14 03:05:59;;;;;;;0.50;0.30;;;;;;;19.32;100.00;94711.06;5074141;28;20425;-57
2022/08/14 03:08:30;;;;;;;0.63;0.40;;;;;;;19.30;100.00;94703.31;5074086;28;20491;-57
2022/08/14 03:11:06;;;;;;;0.60;0.60;;;;;;;19.02;100.00;94659.50;5074134;28;20421;-57
2022/08/14 03:13:39;;;;;;;0.47;0.40;;;;;;;19.31;100.00;94704.91;5074330;28;20990;-57
2022/08/14 03:16:13;;;;;;;1.47;0.40;;;;;;;19.22;100.00;94700.78;5073944;28;20461;-57
2022/08/14 03:18:57;;;;;;;0.50;0.30;;;;;;;19.32;100.00;94705.69;5073799;28;20494;-57
2022/08/14 03:21:28;;;;;;;0.70;0.67;;;;;;;19.22;100.00;94714.19;5073798;28;20997;-57
2022/08/14 03:24:08;;;;;;;0.40;0.20;;;;;;;19.08;100.00;94711.06;5073860;28;20405;-57
2022/08/14 03:26:52;;;;;;;0.70;0.70;;;;;;;19.18;100.00;94714.09;5073668;28;20432;-57
2022/08/14 03:29:27;;;;;;;0.93;0.53;;;;;;;19.20;100.00;94709.16;5073499;28;20904;-57
2022/08/14 03:31:58;;;;;;;0.90;0.90;;;;;;;19.20;100.00;94711.06;5073611;28;20988;-57
2022/08/14 03:34:27;;;;;;;0.50;0.33;;;;;;;19.01;100.00;94706.28;5073561;28;20425;-56
2022/08/14 03:37:15;;;;;;;0.40;0.30;;;;;;;19.13;100.00;94717.00;5073555;28;20437;-56
2022/08/14 03:40:05;;;;;;;0.50;0.30;;;;;;;19.08;100.00;94716.44;5073351;28;20541;-56
2022/08/14 03:42:38;;;;;;;0.50;0.30;;;;;;;19.06;100.00;94718.69;5073946;28;20449;-56
2022/08/14 03:45:08;;;;;;;0.53;0.53;;;;;;;19.27;100.00;94722.81;5073213;28;20426;-60
2022/08/14 03:47:59;;;;;;;0.40;0.30;;;;;;;19.50;100.00;94720.47;5073589;28;20460;-60
2022/08/14 03:50:31;;;;;;;0.50;0.30;;;;;;;19.38;100.00;94726.63;5073326;28;20934;-60
2022/08/14 03:53:00;;;;;;;0.40;0.30;;;;;;;19.23;100.00;94732.66;5073490;28;20473;-60
2022/08/14 03:55:30;;;;;;;0.50;0.30;;;;;;;19.21;100.00;94724.16;5073387;28;20444;-61
2022/08/14 03:57:59;;;;;;;0.60;0.60;;;;;;;19.15;100.00;94725.50;5073016;28;20421;-58
2022/08/14 04:00:29;;;;;;;0.60;0.60;;;;;;;19.51;100.00;94730.06;5073311;28;20425;-58
2022/08/14 04:03:13;;;;;;;0.60;0.30;;;;;;;19.49;100.00;94735.00;5073038;28;20944;-58
2022/08/14 04:05:51;;;;;;;0.40;0.30;;;;;;;19.44;100.00;94722.59;5073309;28;20856;-58
2022/08/14 04:08:20;;;;;;;0.50;0.30;;;;;;;19.33;100.00;94726.03;5073269;28;20421;-59
2022/08/14 04:10:59;;;;;;;0.47;0.33;;;;;;;19.50;100.00;94723.94;5072469;28;20421;-58
2022/08/14 04:13:28;;;;;;;0.50;0.50;;;;;;;19.02;100.00;94719.34;5071891;28;20465;-58
2022/08/14 04:16:03;;;;;;;0.70;0.67;;;;;;;19.13;100.00;94727.75;5072674;28;20512;-59
2022/08/14 04:18:40;;;;;;;0.70;0.40;;;;;;;19.16;100.00;94723.59;5072634;28;20486;-58
2022/08/14 04:21:10;;;;;;;1.70;0.60;;;;;;;18.91;100.00;94712.88;5072670;28;20807;-58
2022/08/14 04:23:39;;;;;;;3.17;0.80;;;;;;;18.99;100.00;94706.63;5072775;28;20424;-58
2022/08/14 04:26:10;;;;;;;0.50;0.50;;;;;;;19.08;100.00;94714.53;5072659;28;20445;-58
2022/08/14 04:28:54;;;;;;;0.40;0.30;;;;;;;19.55;100.00;94709.47;5072682;28;20423;-58
2022/08/14 04:31:42;;;;;;;0.80;0.47;;;;;;;19.63;100.00;94711.25;5072619;28;20510;-58
2022/08/14 04:34:30;;;;;;;0.50;0.30;;;;;;;19.78;100.00;94713.22;5072538;28;20429;-59
2022/08/14 04:45:39;;;;;;;0.50;0.30;;;;;;;19.15;100.00;94593.88;5072542;28;20508;-59
2022/08/14 04:48:14;;;;;;;0.57;0.57;;;;;;;19.95;100.00;94701.38;5072348;28;20843;-60
2022/08/14 04:51:05;;;;;;;0.50;0.40;;;;;;;19.77;100.00;94695.50;5072285;28;20429;-59
2022/08/14 04:53:35;;;;;;;0.50;0.30;;;;;;;20.04;100.00;94702.78;5072004;28;21137;-59
2022/08/14 04:56:11;;;;;;;0.77;0.77;;;;;;;19.99;100.00;94703.03;5072068;28;20429;-60
2022/08/14 04:59:03;;;;;;;0.53;0.40;;;;;;;20.03;100.00;94713.91;5072279;28;20436;-59
2022/08/14 05:01:42;;;;;;;0.60;0.47;;;;;;;19.82;100.00;94671.06;5071765;28;20512;-60
2022/08/14 05:04:19;;;;;;;0.40;0.30;;;;;;;20.13;100.00;94708.81;5071859;28;20425;-59
2022/08/14 05:06:50;;;;;;;0.57;0.40;;;;;;;20.23;100.00;94718.31;5071965;28;20432;-60
2022/08/14 05:09:22;;;;;;;3.13;0.50;;;;;;;20.22;100.00;94722.09;5072150;28;20428;-59
2022/08/14 05:11:51;;;;;;;0.57;0.47;;;;;;;20.22;100.00;94722.88;5072020;28;20494;-60
2022/08/14 05:14:21;;;;;;;4.93;1.17;;;;;;;19.78;100.00;94723.19;5071105;28;20469;-59
2022/08/14 05:17:10;;;;;;;2.07;0.70;;;;;;;19.18;100.00;94727.50;5071450;28;20437;-59
2022/08/14 05:19:40;;;;;;;1.33;1.27;;;;;;;19.16;100.00;94726.28;5071775;28;20496;-60
2022/08/14 05:22:29;;;;;;;2.20;2.10;;;;;;;19.27;100.00;94727.41;5071087;28;20432;-58
2022/08/14 05:24:57;;;;;;;1.67;1.57;;;;;;;19.02;100.00;94724.72;5071546;28;20925;-59
2022/08/14 05:27:26;;;;;;;0.60;0.60;;;;;;;19.48;100.00;94720.78;5071409;28;20933;-60
2022/08/14 05:29:59;;;;;;;3.50;0.60;;;;;;;18.99;100.00;94716.56;5071496;28;20421;-60
2022/08/14 05:32:27;;;;;;;0.60;0.50;;;;;;;19.30;100.00;94713.31;5071508;28;20425;-59
2022/08/14 05:34:58;;;;;;;1.00;0.90;;;;;;;19.61;100.00;94727.72;5071717;28;20417;-59
2022/08/14 05:37:29;;;;;;;0.50;0.50;;;;;;;19.63;100.00;94735.44;5071671;28;20433;-60
2022/08/14 05:40:00;;;;;;;2.00;1.53;;;;;;;19.82;100.00;94724.06;5071352;28;20512;-59
2022/08/14 05:42:30;;;;;;;0.50;0.50;;;;;;;19.65;100.00;94730.50;5072168;28;20428;-61
2022/08/14 05:45:04;;;;;;;0.60;0.60;;;;;;;19.51;100.00;94719.31;5071708;28;20539;-61
2022/08/14 05:47:40;;;;;;;0.90;0.90;;;;;;;19.48;100.00;94668.97;5071530;28;20425;-60
2022/08/14 05:50:14;;;;;;;0.50;0.30;;;;;;;20.18;100.00;94705.88;5071732;28;20577;-59
2022/08/14 05:52:48;;;;;;;0.40;0.30;;;;;;;19.92;100.00;94678.66;5071401;28;20497;-61
2022/08/14 05:55:20;;;;;;;0.87;0.87;;;;;;;20.17;100.00;94715.06;5071559;28;20539;-59
2022/08/14 05:57:53;;;;;;;0.50;0.30;;;;;;;20.20;100.00;94676.72;5071258;28;20417;-60
2022/08/14 06:00:30;;;;;;;1.03;1.03;;;;;;;20.13;100.00;94679.22;5070885;28;20424;-58
2022/08/14 06:03:08;;;;;;;0.50;0.50;;;;;;;20.43;100.00;94692.31;5071491;28;20501;-59
2022/08/14 06:05:38;;;;;;;5.00;1.50;;;;;;;20.58;100.00;94688.84;5071361;28;20425;-59
2022/08/14 06:08:15;;;;;;;0.50;0.43;;;;;;;20.26;100.00;94636.91;5071285;28;20429;-59
2022/08/14 06:11:06;;;;;;;0.50;0.40;;;;;;;20.03;100.00;94607.09;5071203;28;20429;-58
2022/08/14 06:13:41;;;;;;;0.40;0.30;;;;;;;20.78;100.00;94677.03;5070438;28;20620;-58
2022/08/14 06:16:15;;;;;;;0.87;0.87;;;;;;;20.73;100.00;94690.75;5071069;28;20420;-58
2022/08/14 06:18:47;;;;;;;0.50;0.37;;;;;;;21.01;100.00;94694.13;5070740;28;20557;-57
2022/08/14 06:21:22;;;;;;;1.07;0.40;;;;;;;21.22;100.00;94683.88;5070935;28;20633;-57
2022/08/14 06:23:50;;;;;;;0.77;0.77;;;;;;;21.14;100.00;94686.75;5070661;28;20417;-57
2022/08/14 06:26:19;;;;;;;0.83;0.70;;;;;;;21.06;100.00;94687.72;5070753;28;20453;-57
2022/08/14 06:28:50;;;;;;;0.93;0.93;;;;;;;21.11;100.00;94688.22;5070649;28;20428;-56
2022/08/14 06:31:20;;;;;;;1.07;1.07;;;;;;;21.07;100.00;94684.69;5070271;28;20417;-56
2022/08/14 06:33:50;;;;;;;0.60;0.60;;;;;;;21.07;100.00;94684.69;5070548;28;20518;-57
2022/08/14 06:36:40;;;;;;;0.60;0.60;;;;;;;20.96;100.00;94680.13;5073621;28;20439;-58
2022/08/14 06:39:08;;;;;;;0.50;0.40;;;;;;;21.15;100.00;94683.69;5074234;28;20437;-58
2022/08/14 06:41:38;;;;;;;2.70;2.50;;;;;;;20.61;100.00;94663.91;5074562;28;20425;-57
2022/08/14 06:44:26;;;;;;;1.00;1.00;;;;;;;20.85;100.00;94663.72;5074161;28;20437;-57
2022/08/14 06:47:01;;;;;;;0.50;0.40;;;;;;;21.13;100.00;94671.69;5073757;28;20808;-57
2022/08/14 06:49:31;;;;;;;1.07;1.00;;;;;;;20.49;100.00;94580.56;5072376;28;20435;-57
2022/08/14 06:52:14;;;;;;;1.60;1.50;;;;;;;21.18;100.00;94677.59;5071546;28;20421;-56
2022/08/14 06:54:44;;;;;;;0.80;0.80;;;;;;;20.93;100.00;94660.06;5072455;28;20471;-58
2022/08/14 06:57:13;;;;;;;2.07;1.97;;;;;;;20.16;100.00;94667.75;5072831;28;20819;-57
2022/08/14 06:59:42;;;;;;;1.43;0.97;;;;;;;20.54;100.00;94677.22;5072914;28;20422;-57
2022/08/14 07:07:51;;;;;;;0.60;0.50;;;;;;;20.65;100.00;94675.53;5071798;28;20926;-57
2022/08/14 07:10:21;;;;;;;0.57;0.57;;;;;;;21.13;100.00;94677.09;5071750;28;20447;-57
2022/08/14 07:12:52;;;;;;;1.27;1.17;;;;;;;20.63;100.00;94675.13;5072532;28;20425;-57
2022/08/14 07:15:32;;;;;;;2.93;0.50;;;;;;;20.60;100.00;94668.50;5072320;28;20538;-56
2022/08/14 07:18:10;;;;;;;0.83;0.83;;;;;;;20.58;100.00;94667.31;5073394;28;20530;-58
2022/08/14 07:20:39;;;;;;;0.80;0.70;;;;;;;20.59;100.00;94668.88;5073907;28;20475;-58
2022/08/14 07:23:11;;;;;;;0.60;0.53;;;;;;;20.87;100.00;94645.31;5073553;28;20448;-57
2022/08/14 07:25:48;;;;;;;0.50;0.40;;;;;;;21.39;100.00;94672.69;5073306;28;20992;-57
2022/08/14 07:28:22;;;;;;;0.73;0.73;;;;;;;21.13;100.00;94667.09;5073638;28;20524;-57
2022/08/14 07:30:55;;;;;;;0.60;0.50;;;;;;;21.23;100.00;94663.06;5073318;28;20852;-57
2022/08/14 07:33:24;;;;;;;0.50;0.47;;;;;;;21.39;100.00;94666.50;5073381;28;20504;-57
2022/08/14 07:35:59;;;;;;;0.93;0.93;;;;;;;21.83;100.00;94667.03;5073629;28;20421;-57
2022/08/14 07:38:29;;;;;;;0.73;0.73;;;;;;;21.74;100.00;94620.59;5073268;28;20925;-57
2022/08/14 07:41:05;;;;;;;1.10;1.00;;;;;;;21.85;100.00;94664.75;5073130;28;20413;-57
2022/08/14 07:43:42;;;;;;;0.80;0.80;;;;;;;22.16;100.00;94667.34;5073349;28;20835;-57
2022/08/14 07:46:15;;;;;;;0.97;0.60;;;;;;;22.37;100.00;94665.00;5073265;28;20516;-57
2022/08/14 07:48:56;;;;;;;1.47;1.37;;;;;;;21.85;100.00;94610.81;5073174;28;20418;-57
2022/08/14 07:51:25;;;;;;;1.10;1.00;;;;;;;22.58;100.00;94670.78;5073022;28;20933;-57
2022/08/14 07:54:07;;;;;;;0.50;0.40;;;;;;;22.79;100.00;94667.69;5073168;28;20472;-57
2022/08/14 07:56:39;;;;;;;0.80;0.70;;;;;;;22.95;100.00;94675.63;5073124;28;20417;-57
2022/08/14 07:59:16;;;;;;;0.90;0.90;;;;;;;22.35;100.00;94675.38;5073184;28;20510;-57
2022/08/14 08:01:47;;;;;;;0.90;0.70;;;;;;;22.95;100.00;94672.91;5072718;28;20459;-57
2022/08/14 08:04:24;;;;;;;0.60;0.60;;;;;;;23.12;100.00;94683.25;5072834;28;20424;-57
2022/08/14 08:06:55;;;;;;;1.20;1.10;;;;;;;22.41;100.00;94681.28;5072690;28;20425;-57
2022/08/14 08:09:27;;;;;;;0.50;0.40;;;;;;;22.74;100.00;94674.16;5072632;28;20425;-56
2022/08/14 08:12:00;;;;;;;0.70;0.50;;;;;;;22.82;100.00;94677.00;5072701;28;20428;-56
2022/08/14 08:14:34;;;;;;;0.70;0.70;;;;;;;22.87;100.00;94693.66;5072732;28;20518;-57
2022/08/14 08:17:23;;;;;;;1.87;0.60;;;;;;;22.82;100.00;94685.09;5072027;28;20444;-57
2022/08/14 08:19:52;;;;;;;0.60;0.50;;;;;;;22.52;100.00;94690.31;5072710;28;20429;-57
2022/08/14 08:22:22;;;;;;;1.33;0.90;;;;;;;22.71;100.00;94693.81;5072433;28;20425;-56
2022/08/14 08:24:55;;;;;;;0.93;0.93;;;;;;;22.80;100.00;94690.06;5072546;28;20417;-56
2022/08/14 08:27:25;;;;;;;0.67;0.50;;;;;;;22.59;100.00;94693.94;5071952;28;20793;-57
2022/08/14 08:30:07;;;;;;;2.30;0.50;;;;;;;22.54;100.00;94691.53;5072313;28;20458;-57
2022/08/14 08:32:40;;;;;;;2.10;1.03;;;;;;;22.58;100.00;94684.28;5072161;28;20479;-57
2022/08/14 08:35:19;;;;;;;0.80;0.80;;;;;;;21.86;100.00;94617.78;5072103;28;20461;-57
2022/08/14 08:37:48;;;;;;;0.53;0.53;;;;;;;21.81;100.00;94599.94;5072121;28;20428;-57
2022/08/14 08:40:34;;;;;;;3.27;0.80;;;;;;;22.36;100.00;94676.16;5072290;28;20441;-57
2022/08/14 08:43:17;;;;;;;1.30;1.23;;;;;;;21.78;100.00;94651.16;5072240;28;20445;-57
2022/08/14 08:45:54;;;;;;;0.53;0.37;;;;;;;22.06;100.00;94679.47;5071766;28;20479;-57
2022/08/14 08:48:23;;;;;;;1.23;0.60;;;;;;;22.14;100.00;94626.41;5072211;28;20495;-57
2022/08/14 08:51:04;;;;;;;0.40;0.30;;;;;;;22.01;100.00;94625.03;5071902;28;20413;-57
2022/08/14 08:53:34;;;;;;;2.80;1.30;;;;;;;21.93;100.00;94696.19;5071793;28;20509;-57
2022/08/14 08:56:04;;;;;;;1.70;1.60;;;;;;;22.21;100.00;94699.44;5071683;28;20472;-57
2022/08/14 08:58:38;;;;;;;1.00;0.77;;;;;;;22.48;100.00;94701.09;5071143;28;20421;-57
2022/08/14 09:01:07;;;;;;;0.50;0.40;;;;;;;22.48;100.00;94706.47;5072069;28;20417;-57
2022/08/14 09:03:41;;;;;;;0.50;0.40;;;;;;;22.79;100.00;94708.22;5071829;28;20504;-57
2022/08/14 09:06:11;;;;;;;0.50;0.40;;;;;;;22.93;100.00;94694.13;5071692;28;20409;-57
2022/08/14 09:08:59;;;;;;;1.00;0.93;;;;;;;22.70;100.00;94694.16;5071402;28;20514;-57
2022/08/14 09:11:30;;;;;;;0.70;0.50;;;;;;;22.81;100.00;94695.13;5071549;28;20466;-57
2022/08/14 09:13:59;;;;;;;1.03;0.93;;;;;;;22.31;100.00;94679.16;5071716;28;20547;-57
2022/08/14 09:16:28;;;;;;;0.60;0.40;;;;;;;21.96;100.00;94688.13;5071547;28;20526;-57
2022/08/14 09:18:56;;;;;;;0.60;0.60;;;;;;;21.77;100.00;94692.72;5071742;28;20540;-57
2022/08/14 09:21:25;;;;;;;0.40;0.30;;;;;;;21.71;100.00;94681.44;5071531;28;20513;-58
2022/08/14 09:23:59;;;;;;;0.50;0.30;;;;;;;21.72;100.00;94695.72;5071592;28;20421;-58
2022/08/14 09:26:49;;;;;;;0.40;0.27;;;;;;;21.19;100.00;94681.88;5071448;28;20524;-58
2022/08/14 09:29:18;;;;;;;1.13;1.03;;;;;;;21.36;100.00;94684.19;5071810;28;20509;-58
2022/08/14 09:31:55;;;;;;;0.50;0.40;;;;;;;21.31;100.00;94675.56;5071555;28;20423;-57
2022/08/14 09:34:49;;;;;;;0.50;0.40;;;;;;;21.64;100.00;94667.03;5071488;28;20428;-57
2022/08/14 09:37:38;;;;;;;0.70;0.40;;;;;;;21.51;100.00;94683.34;5071401;28;20422;-57
2022/08/14 09:40:18;;;;;;;0.40;0.20;;;;;;;21.82;100.00;94685.16;5071645;28;20464;-57
2022/08/14 09:43:00;;;;;;;0.40;0.20;;;;;;;21.43;100.00;94675.44;5071275;28;20437;-57
2022/08/14 09:45:35;;;;;;;1.03;0.80;;;;;;;21.32;100.00;94674.47;5071281;28;20507;-57
2022/08/14 09:48:22;;;;;;;0.47;0.40;;;;;;;21.18;100.00;94693.00;5070674;28;20504;-57
2022/08/14 09:50:58;;;;;;;0.40;0.30;;;;;;;21.33;100.00;94689.47;5070595;28;20417;-57
2022/08/14 09:53:42;;;;;;;0.50;0.50;;;;;;;21.65;100.00;94690.97;5070988;28;20516;-57
2022/08/14 09:56:31;;;;;;;1.70;0.40;;;;;;;20.70;100.00;94649.16;5070590;28;20841;-58
2022/08/14 09:59:13;;;;;;;0.73;0.73;;;;;;;20.08;100.00;94670.63;5070561;28;20417;-58
2022/08/14 10:01:44;;;;;;;0.40;0.30;;;;;;;20.84;100.00;94705.28;5070574;28;20483;-57
2022/08/14 10:04:23;;;;;;;0.40;0.37;;;;;;;21.31;100.00;94695.22;5070816;28;20510;-57
2022/08/14 10:07:04;;;;;;;0.60;0.60;;;;;;;21.13;100.00;94648.22;5071087;28;20730;-58
2022/08/14 10:09:47;;;;;;;0.50;0.40;;;;;;;21.17;100.00;94691.44;5072898;28;20437;-58
2022/08/14 10:12:47;;;;;;;0.50;0.30;;;;;;;21.42;100.00;94688.16;5075049;28;21020;-58
2022/08/14 10:15:25;;;;;;;0.40;0.30;;;;;;;21.37;100.00;94676.88;5075072;28;20456;-58
2022/08/14 10:18:06;;;;;;;0.60;0.60;;;;;;;20.78;100.00;94668.94;5074525;28;21004;-58
2022/08/14 10:20:40;;;;;;;1.87;0.60;;;;;;;20.41;100.00;94640.72;5074588;28;20905;-57
2022/08/14 10:23:17;;;;;;;0.50;0.50;;;;;;;20.67;100.00;94660.59;5074882;28;20915;-58
2022/08/14 10:25:49;;;;;;;0.50;0.40;;;;;;;20.63;100.00;94648.97;5074457;28;20509;-58
2022/08/14 10:28:21;;;;;;;1.30;1.20;;;;;;;20.69;100.00;94660.28;5074674;28;20416;-58
2022/08/14 10:31:28;;;;;;;0.53;0.53;;;;;;;21.14;100.00;94671.38;5074522;28;20932;-58
2022/08/14 10:34:09;;;;;;;0.70;0.67;;;;;;;21.37;100.00;94669.56;5074532;28;20456;-58
2022/08/14 10:36:42;;;;;;;0.50;0.40;;;;;;;21.08;100.00;94655.81;5074632;28;20475;-58
2022/08/14 10:39:19;;;;;;;0.53;0.50;;;;;;;20.71;100.00;94620.31;5074300;28;20460;-58
2022/08/14 10:41:49;;;;;;;0.80;0.50;;;;;;;21.17;100.00;94626.75;5074498;28;20775;-57
2022/08/14 10:44:24;;;;;;;1.33;1.27;;;;;;;21.39;100.00;94675.38;5074264;28;20508;-57
2022/08/14 10:47:06;;;;;;;0.50;0.37;;;;;;;21.72;100.00;94672.22;5074267;28;20421;-57
2022/08/14 10:49:59;;;;;;;0.60;0.50;;;;;;;21.94;100.00;94665.34;5074414;28;20761;-56
2022/08/14 10:52:31;;;;;;;0.70;0.50;;;;;;;22.24;100.00;94663.59;5074373;28;20509;-56
2022/08/14 10:55:12;;;;;;;0.50;0.40;;;;;;;22.09;100.00;94662.56;5074132;28;20421;-56
2022/08/14 10:57:50;;;;;;;1.80;0.80;;;;;;;22.14;100.00;94662.28;5074126;28;20441;-57
2022/08/14 11:00:25;;;;;;;0.50;0.40;;;;;;;22.11;100.00;94660.28;5073955;28;20425;-57
2022/08/14 11:03:08;;;;;;;3.53;1.63;;;;;;;22.44;100.00;94657.00;5074429;28;20417;-57
2022/08/14 11:05:41;;;;;;;0.60;0.60;;;;;;;22.61;100.00;94648.47;5074067;28;21105;-56
2022/08/14 11:08:13;;;;;;;0.40;0.30;;;;;;;23.12;100.00;94637.28;5074198;28;20445;-56
2022/08/14 11:10:47;;;;;;;0.60;0.60;;;;;;;23.20;100.00;94574.81;5073363;28;20457;-56
2022/08/14 11:13:21;;;;;;;0.90;0.30;;;;;;;23.99;100.00;94631.44;5073684;28;20516;-56
2022/08/14 11:15:52;;;;;;;0.40;0.23;;;;;;;24.50;100.00;94635.09;5073949;28;20907;-58
2022/08/14 11:18:23;;;;;;;0.40;0.30;;;;;;;24.97;100.00;94630.88;5073609;28;20504;-56
2022/08/14 11:21:06;;;;;;;0.70;0.40;;;;;;;25.08;99.05;94621.63;5073145;28;20502;-56
2022/08/14 11:23:38;;;;;;;0.63;0.47;;;;;;;25.00;100.00;94621.97;5073866;28;20500;-55
2022/08/14 11:26:12;;;;;;;0.70;0.50;;;;;;;25.17;100.00;94626.75;5073738;28;20494;-55
2022/08/14 11:28:45;;;;;;;0.50;0.40;;;;;;;25.15;100.00;94607.34;5072342;28;20441;-55
2022/08/14 11:31:20;;;;;;;4.13;0.90;;;;;;;25.19;92.05;94586.47;5073363;28;20517;-56
2022/08/14 11:33:56;;;;;;;0.60;0.30;;;;;;;25.50;93.25;94609.50;5073454;28;20478;-56
2022/08/14 11:36:28;;;;;;;0.40;0.40;;;;;;;24.48;95.31;94596.00;5073365;28;21082;-55
2022/08/14 11:39:20;;;;;;;0.87;0.73;;;;;;;24.50;100.00;94593.69;5073310;28;20949;-56
2022/08/14 11:42:03;;;;;;;0.43;0.30;;;;;;;24.48;97.49;94558.06;5073581;28;20921;-56
2022/08/14 11:44:56;;;;;;;0.50;0.30;;;;;;;24.51;100.00;94579.00;5073104;28;20437;-56
2022/08/14 11:47:27;;;;;;;0.40;0.30;;;;;;;24.73;100.00;94571.78;5073108;28;20472;-56
2022/08/14 11:50:22;;;;;;;0.40;0.20;;;;;;;24.50;100.00;94570.09;5073388;28;20425;-56
2022/08/14 11:53:05;;;;;;;0.40;0.30;;;;;;;24.40;100.00;94559.16;5072952;28;21010;-56
2022/08/14 11:55:36;;;;;;;0.50;0.40;;;;;;;24.91;100.00;94565.38;5073538;28;20831;-56
2022/08/14 11:58:08;;;;;;;0.53;0.53;;;;;;;25.04;100.00;94577.47;5073226;28;20413;-56
2022/08/14 12:00:47;;;;;;;0.40;0.30;;;;;;;25.44;99.82;94583.84;5072786;28;20768;-56
2022/08/14 12:03:16;;;;;;;0.40;0.30;;;;;;;25.34;100.00;94527.63;5072840;28;20478;-56
2022/08/14 12:06:07;;;;;;;0.40;0.33;;;;;;;25.83;82.16;94576.69;5072971;28;20440;-56
2022/08/14 12:08:56;;;;;;;0.40;0.40;;;;;;;25.82;93.46;94575.91;5072887;28;20524;-56
2022/08/14 12:11:38;;;;;;;0.90;0.70;;;;;;;25.78;87.84;94566.16;5072577;28;20421;-56
2022/08/14 12:14:14;;;;;;;0.70;0.30;;;;;;;25.74;81.05;94568.09;5072695;28;20425;-56
2022/08/14 12:17:06;;;;;;;0.40;0.30;;;;;;;26.01;81.74;94566.63;5072239;28;20568;-56
2022/08/14 12:19:47;;;;;;;0.40;0.30;;;;;;;25.84;79.12;94562.72;5072448;28;20479;-56
2022/08/14 12:22:33;;;;;;;0.50;0.43;;;;;;;25.78;73.15;94556.09;5072599;28;20422;-56
2022/08/14 12:25:02;;;;;;;0.40;0.30;;;;;;;26.13;82.94;94554.66;5072360;28;20417;-55
2022/08/14 12:27:41;;;;;;;0.40;0.40;;;;;;;26.07;76.64;94521.63;5072570;28;20416;-56